Time;durP1;ratioP1;P1;durP2;ratioP2;P2;SDS_P1;SDS_P2;PMS_P1;PMS_P2;Temp;Humidity;BMP_temperature;BMP_pressure;BME280_temperature;BME280_humidity;BME280_pressure;Samples;Min_cycle;Max_cycle;Signal;HPM_P1;HPM_P2
2022/08/22 00:02:24;;;;;;;5.85;5.10;;;;;;;;;;5052868;28;20025;-42
2022/08/22 00:05:37;;;;;;;5.82;4.70;;;;;;;;;;5038600;28;20037;-41
2022/08/22 00:08:22;;;;;;;5.40;4.90;;;;;;;;;;4952414;29;20470;-44
2022/08/22 00:11:10;;;;;;;5.50;5.00;;;;;;;;;;4952572;29;20035;-42
2022/08/22 00:13:44;;;;;;;5.80;4.72;;;;;;;;;;5026787;28;20060;-42
2022/08/22 00:16:27;;;;;;;5.53;4.93;;;;;;;;;;5052619;28;20025;-43
2022/08/22 00:19:16;;;;;;;5.50;4.90;;;;;;;;;;5052898;28;20028;-47
2022/08/22 00:21:50;;;;;;;8.23;4.60;;;;;;;;;;5004199;28;20106;-42
2022/08/22 00:24:33;;;;;;;5.55;4.35;;;;;;;;;;5052786;28;20420;-42
2022/08/22 00:27:33;;;;;;;5.45;4.60;;;;;;;;;;5052419;28;20484;-44
2022/08/22 00:30:13;;;;;;;4.82;4.28;;;;;;;;;;5052396;28;20393;-43
2022/08/22 00:32:41;;;;;;;;;;;;;;;;;;5053184;28;20028;-42
2022/08/22 00:35:12;;;;;;;6.50;4.65;;;;;;;;;;5052668;28;19908;-45
2022/08/22 00:37:43;;;;;;;6.63;5.05;;;;;;;;;;5052345;28;20036;-45
2022/08/22 00:40:15;;;;;;;4.80;4.30;;;;;;;;;;5052668;28;20372;-41
2022/08/22 00:42:52;;;;;;;5.45;4.95;;;;;;;;;;5052305;28;20108;-41
2022/08/22 00:45:23;;;;;;;4.78;4.38;;;;;;;;;;5052048;28;20116;-41
2022/08/22 00:48:13;;;;;;;5.53;4.50;;;;;;;;;;5052193;28;20029;-42
2022/08/22 00:50:52;;;;;;;5.38;4.43;;;;;;;;;;5052619;28;20025;-42
2022/08/22 00:53:44;;;;;;;7.13;4.40;;;;;;;;;;5052269;28;20111;-44
2022/08/22 00:56:43;;;;;;;4.53;4.13;;;;;;;;;;5014078;28;20033;-42
2022/08/22 00:59:42;;;;;;;4.00;3.70;;;;;;;;;;5052217;28;20036;-47
2022/08/22 01:02:32;;;;;;;4.30;4.00;;;;;;;;;;5052433;28;20373;-45
2022/08/22 01:05:09;;;;;;;4.50;4.10;;;;;;;;;;5052216;28;20516;-42
2022/08/22 01:07:47;;;;;;;7.55;4.45;;;;;;;;;;5051935;28;20500;-42
2022/08/22 01:10:21;;;;;;;4.82;3.92;;;;;;;;;;5052380;28;20064;-41
2022/08/22 01:13:22;;;;;;;5.07;4.05;;;;;;;;;;5051985;28;20507;-41
2022/08/22 01:15:54;;;;;;;4.15;3.42;;;;;;;;;;5052038;28;20044;-42
2022/08/22 01:18:58;;;;;;;7.88;4.50;;;;;;;;;;5051935;28;20036;-41
2022/08/22 01:21:27;;;;;;;5.60;4.93;;;;;;;;;;5052259;28;20494;-41
2022/08/22 01:24:32;;;;;;;5.80;5.30;;;;;;;;;;5052155;28;20025;-41
2022/08/22 01:27:33;;;;;;;7.20;5.93;;;;;;;;;;5051766;28;20028;-42
2022/08/22 01:30:23;;;;;;;6.95;5.85;;;;;;;;;;4951573;29;20400;-41
2022/08/22 01:32:57;;;;;;;6.75;6.00;;;;;;;;;;5047621;28;20037;-43
2022/08/22 01:35:37;;;;;;;9.27;5.93;;;;;;;;;;5051820;28;20096;-47
2022/08/22 01:38:11;;;;;;;;;;;;;;;;;;5052246;28;20108;-46
2022/08/22 01:41:03;;;;;;;6.68;5.97;;;;;;;;;;5052025;28;20277;-45
2022/08/22 01:44:05;;;;;;;9.88;6.43;;;;;;;;;;5013183;28;20033;-45
2022/08/22 01:46:42;;;;;;;8.52;6.55;;;;;;;;;;5051677;28;20052;-43
2022/08/22 01:49:16;;;;;;;7.57;6.60;;;;;;;;;;5051802;28;20083;-42
2022/08/22 01:52:05;;;;;;;7.55;6.68;;;;;;;;;;5051971;28;20467;-44
2022/08/22 01:54:55;;;;;;;7.72;6.40;;;;;;;;;;5051285;28;20488;-41
2022/08/22 01:57:25;;;;;;;8.83;6.30;;;;;;;;;;5053153;28;20078;-45
2022/08/22 01:59:58;;;;;;;7.45;6.63;;;;;;;;;;5055851;28;20025;-41
2022/08/22 02:02:55;;;;;;;6.80;6.10;;;;;;;;;;5055174;28;20029;-44
2022/08/22 02:05:30;;;;;;;7.97;6.00;;;;;;;;;;5041669;28;20114;-41
2022/08/22 02:08:04;;;;;;;10.63;6.97;;;;;;;;;;5055336;28;20384;-42
2022/08/22 02:11:07;;;;;;;7.65;6.85;;;;;;;;;;5055070;28;20025;-45
2022/08/22 02:14:01;;;;;;;8.05;7.18;;;;;;;;;;5055038;28;20033;-43
2022/08/22 02:16:37;;;;;;;7.80;7.00;;;;;;;;;;5055002;28;20496;-43
2022/08/22 02:19:15;;;;;;;8.68;7.13;;;;;;;;;;5054935;28;20029;-42
2022/08/22 02:21:43;;;;;;;8.73;7.82;;;;;;;;;;5055009;28;20368;-46
2022/08/22 02:24:21;;;;;;;9.40;7.18;;;;;;;;;;5054812;28;20021;-41
2022/08/22 02:27:16;;;;;;;9.18;7.80;;;;;;;;;;5054659;28;20083;-41
2022/08/22 02:29:52;;;;;;;11.02;7.95;;;;;;;;;;5055058;28;20025;-44
2022/08/22 02:32:26;;;;;;;9.02;8.13;;;;;;;;;;5055010;28;20045;-44
2022/08/22 02:35:04;;;;;;;8.52;7.55;;;;;;;;;;5054651;28;20021;-49
2022/08/22 02:37:32;;;;;;;8.93;7.53;;;;;;;;;;5054565;28;20067;-44
2022/08/22 02:40:07;;;;;;;10.48;8.23;;;;;;;;;;5054517;28;20423;-43
2022/08/22 02:42:46;;;;;;;8.98;8.07;;;;;;;;;;5054407;28;20055;-43
2022/08/22 02:45:22;;;;;;;8.93;7.97;;;;;;;;;;5054238;28;20098;-43
2022/08/22 02:48:31;;;;;;;8.70;7.60;;;;;;;;;;5054573;28;20033;-43
2022/08/22 02:51:37;;;;;;;8.38;7.55;;;;;;;;;;5054543;28;20092;-43
2022/08/22 02:54:09;;;;;;;8.02;7.20;;;;;;;;;;5040687;28;20055;-44
2022/08/22 02:57:04;;;;;;;10.38;7.47;;;;;;;;;;5036599;28;20388;-41
2022/08/22 02:59:56;;;;;;;7.07;6.38;;;;;;;;;;5045319;28;20119;-42
2022/08/22 03:02:45;;;;;;;6.63;6.03;;;;;;;;;;5054341;28;20029;-42
2022/08/22 03:05:36;;;;;;;8.35;6.75;;;;;;;;;;5038112;28;20032;-41
2022/08/22 03:08:38;;;;;;;6.88;6.18;;;;;;;;;;5053202;28;20029;-42
2022/08/22 03:11:15;;;;;;;7.28;6.57;;;;;;;;;;5053990;28;20024;-45
2022/08/22 03:14:02;;;;;;;6.68;5.95;;;;;;;;;;5053850;28;20063;-45
2022/08/22 03:16:32;;;;;;;8.43;6.45;;;;;;;;;;5053807;28;20473;-48
2022/08/22 03:19:18;;;;;;;7.55;6.13;;;;;;;;;;5053972;28;20048;-45
2022/08/22 03:21:53;;;;;;;8.00;7.00;;;;;;;;;;5053733;28;20021;-44
2022/08/22 03:24:21;;;;;;;7.97;7.10;;;;;;;;;;5053626;28;20104;-46
2022/08/22 03:27:06;;;;;;;11.32;7.85;;;;;;;;;;5053734;28;20071;-44
2022/08/22 03:29:37;;;;;;;7.65;6.65;;;;;;;;;;5053514;28;20021;-47
2022/08/22 03:32:20;;;;;;;10.60;7.20;;;;;;;;;;5053565;28;20083;-49
2022/08/22 03:35:08;;;;;;;8.63;7.28;;;;;;;;;;5053422;28;20025;-45
2022/08/22 03:37:42;;;;;;;7.80;6.90;;;;;;;;;;5053575;28;20111;-46
2022/08/22 03:40:37;;;;;;;8.93;7.47;;;;;;;;;;5053312;28;20075;-41
2022/08/22 03:43:32;;;;;;;8.43;7.47;;;;;;;;;;5053292;28;20017;-41
2022/08/22 03:46:37;;;;;;;8.30;7.38;;;;;;;;;;5053474;28;20143;-44
2022/08/22 03:49:44;;;;;;;9.98;8.35;;;;;;;;;;5053434;28;20118;-41
2022/08/22 03:53:06;;;;;;;9.35;8.27;;;;;;;;;;4936748;29;20026;-43
2022/08/22 03:55:50;;;;;;;13.43;8.35;;;;;;;;;;4952713;29;20232;-44
2022/08/22 03:58:54;;;;;;;10.98;8.77;;;;;;;;;;5014378;28;20037;-45
2022/08/22 04:01:47;;;;;;;12.15;9.27;;;;;;;;;;5052104;28;20084;-42
2022/08/22 04:04:12;;;;;;;14.25;9.40;;;;;;;;;;5052948;28;20025;-42
2022/08/22 04:07:18;;;;;;;10.93;8.80;;;;;;;;;;5053051;28;20089;-43
2022/08/22 04:10:07;;;;;;;9.90;8.65;;;;;;;;;;5053072;28;20027;-44
2022/08/22 04:13:12;;;;;;;11.00;9.07;;;;;;;;;;5053009;28;20032;-42
2022/08/22 04:15:55;;;;;;;11.25;9.52;;;;;;;;;;5052733;28;20376;-43
2022/08/22 04:18:50;;;;;;;9.63;8.60;;;;;;;;;;5052666;28;20025;-44
2022/08/22 04:21:16;;;;;;;10.48;8.82;;;;;;;;;;5034654;28;20353;-49
2022/08/22 04:24:15;;;;;;;12.90;9.82;;;;;;;;;;5052602;28;20040;-48
2022/08/22 04:26:58;;;;;;;12.27;10.60;;;;;;;;;;5052760;28;20032;-48
2022/08/22 04:29:31;;;;;;;12.63;9.25;;;;;;;;;;5052814;28;20319;-50
2022/08/22 04:32:08;;;;;;;18.17;10.57;;;;;;;;;;5052556;28;20025;-47
2022/08/22 04:34:38;;;;;;;12.25;9.68;;;;;;;;;;5052488;28;20029;-49
2022/08/22 04:37:13;;;;;;;11.00;9.30;;;;;;;;;;5052723;28;20380;-42
2022/08/22 04:40:00;;;;;;;11.55;9.60;;;;;;;;;;5052483;28;20649;-48
2022/08/22 04:42:37;;;;;;;11.77;9.93;;;;;;;;;;5052276;28;20111;-41
2022/08/22 04:45:05;;;;;;;12.55;9.65;;;;;;;;;;5052139;28;20060;-47
2022/08/22 04:47:41;;;;;;;10.68;8.90;;;;;;;;;;5052380;28;20031;-45
2022/08/22 04:50:13;;;;;;;15.82;9.35;;;;;;;;;;5052467;28;20021;-44
2022/08/22 04:53:17;;;;;;;14.20;8.82;;;;;;;;;;5052181;28;20496;-45
2022/08/22 04:56:20;;;;;;;14.38;10.05;;;;;;;;;;5001579;28;20072;-42
2022/08/22 04:59:11;;;;;;;16.85;10.68;;;;;;;;;;5052099;28;20025;-44
2022/08/22 05:01:56;;;;;;;;;;;;;;;;;;5052408;28;20025;-42
2022/08/22 05:04:30;;;;;;;17.33;11.50;;;;;;;;;;5052104;28;19920;-44
2022/08/22 05:07:35;;;;;;;15.40;10.73;;;;;;;;;;5052316;28;20044;-43
2022/08/22 05:10:25;;;;;;;16.13;11.07;;;;;;;;;;4971008;28;20463;-43
2022/08/22 05:12:55;;;;;;;;;;;;;;;;;;5049496;28;20033;-45
2022/08/22 05:15:31;;;;;;;17.25;11.35;;;;;;;;;;5052251;28;20331;-45
2022/08/22 05:18:03;;;;;;;20.02;11.32;;;;;;;;;;5051995;28;20104;-44
2022/08/22 05:20:29;;;;;;;16.38;11.75;;;;;;;;;;5052209;28;20022;-47
2022/08/22 05:23:04;;;;;;;15.32;11.02;;;;;;;;;;5051869;28;20033;-41
2022/08/22 05:25:34;;;;;;;22.10;15.23;;;;;;;;;;5051887;28;20025;-45
2022/08/22 05:28:14;;;;;;;33.05;13.63;;;;;;;;;;5051794;28;20021;-44
2022/08/22 05:30:40;;;;;;;;;;;;;;;;;;5052556;28;20385;-42
2022/08/22 05:33:28;;;;;;;16.58;11.45;;;;;;;;;;5054533;28;19917;-42
2022/08/22 05:35:59;;;;;;;17.70;13.65;;;;;;;;;;5055915;28;20040;-49
2022/08/22 05:38:35;;;;;;;18.00;13.55;;;;;;;;;;5037716;28;20046;-42
2022/08/22 05:41:17;;;;;;;16.40;12.05;;;;;;;;;;5055598;28;20075;-44
2022/08/22 05:43:44;;;;;;;21.63;13.50;;;;;;;;;;5055558;28;20451;-51
2022/08/22 05:46:17;;;;;;;17.20;12.95;;;;;;;;;;5055432;28;20076;-44
2022/08/22 05:48:53;;;;;;;24.65;13.25;;;;;;;;;;5055557;28;20461;-41
2022/08/22 05:51:25;;;;;;;18.67;12.73;;;;;;;;;;5055392;28;20025;-44
2022/08/22 05:54:04;;;;;;;19.30;12.18;;;;;;;;;;5055600;28;20087;-41
2022/08/22 05:56:37;;;;;;;16.38;11.85;;;;;;;;;;5055284;28;20103;-45
2022/08/22 05:59:13;;;;;;;18.02;12.38;;;;;;;;;;5055205;28;20025;-44
2022/08/22 06:02:00;;;;;;;15.70;11.45;;;;;;;;;;5055471;28;20057;-41
2022/08/22 06:04:50;;;;;;;15.77;11.60;;;;;;;;;;5055158;28;20079;-44
2022/08/22 06:07:42;;;;;;;16.77;12.48;;;;;;;;;;5055294;28;20033;-47
2022/08/22 06:10:34;;;;;;;20.02;13.48;;;;;;;;;;5050881;28;20480;-45
2022/08/22 06:13:07;;;;;;;18.02;12.80;;;;;;;;;;5051223;28;20123;-41
2022/08/22 06:15:45;;;;;;;18.13;12.45;;;;;;;;;;5054848;28;20025;-42
2022/08/22 06:18:19;;;;;;;20.13;14.13;;;;;;;;;;5054898;28;20021;-46
2022/08/22 06:20:53;;;;;;;20.63;14.43;;;;;;;;;;5054910;28;20048;-49
2022/08/22 06:23:30;;;;;;;23.17;14.25;;;;;;;;;;5054864;28;20017;-47
2022/08/22 06:25:59;;;;;;;18.85;13.55;;;;;;;;;;5055149;28;20025;-46
2022/08/22 06:28:28;;;;;;;19.00;13.35;;;;;;;;;;5054630;28;20060;-47
2022/08/22 06:30:56;;;;;;;20.23;13.63;;;;;;;;;;5054510;28;20032;-49
2022/08/22 06:33:26;;;;;;;20.20;13.13;;;;;;;;;;5054450;28;20067;-47
2022/08/22 06:38:55;;;;;;;28.33;14.68;;;;;;;;;;5054575;28;20121;-51
2022/08/22 06:41:25;;;;;;;26.23;16.25;;;;;;;;;;5054330;28;20047;-51
2022/08/22 06:43:52;;;;;;;23.42;14.55;;;;;;;;;;5053933;28;20608;-45
2022/08/22 06:46:19;;;;;;;20.05;14.10;;;;;;;;;;5054536;28;20137;-46
2022/08/22 06:48:45;;;;;;;22.55;14.93;;;;;;;;;;5054490;28;20028;-50
2022/08/22 06:51:14;;;;;;;24.15;14.95;;;;;;;;;;5036226;28;20021;-44
2022/08/22 06:53:49;;;;;;;20.85;13.85;;;;;;;;;;5020032;28;20029;-44
2022/08/22 06:56:25;;;;;;;27.17;14.65;;;;;;;;;;5054187;28;20029;-42
2022/08/22 06:58:57;;;;;;;22.05;13.88;;;;;;;;;;5054393;28;20028;-48
2022/08/22 07:01:29;;;;;;;19.65;12.60;;;;;;;;;;5036585;28;20021;-45
2022/08/22 07:04:01;;;;;;;19.08;14.25;;;;;;;;;;5054176;28;20028;-48
2022/08/22 07:06:32;;;;;;;20.23;12.73;;;;;;;;;;5053910;28;20032;-50
2022/08/22 07:08:58;;;;;;;22.63;12.73;;;;;;;;;;5053923;28;20064;-44
2022/08/22 07:11:31;;;;;;;21.48;13.60;;;;;;;;;;5036297;28;20477;-47
2022/08/22 07:14:01;;;;;;;19.50;13.40;;;;;;;;;;5054077;28;20503;-49
2022/08/22 07:16:38;;;;;;;19.17;14.02;;;;;;;;;;5054073;28;20040;-49
2022/08/22 07:19:04;;;;;;;22.90;14.90;;;;;;;;;;5053972;28;20021;-50
2022/08/22 07:21:41;;;;;;;16.85;11.88;;;;;;;;;;5035759;28;20028;-46
2022/08/22 07:24:09;;;;;;;21.83;14.02;;;;;;;;;;5053705;28;20131;-49
2022/08/22 07:27:04;;;;;;;22.98;14.35;;;;;;;;;;5053465;28;20025;-42
2022/08/22 07:30:05;;;;;;;21.55;12.30;;;;;;;;;;5053971;28;20052;-45
2022/08/22 07:32:57;;;;;;;20.90;13.50;;;;;;;;;;4972441;28;20074;-48
2022/08/22 07:35:23;;;;;;;24.02;13.80;;;;;;;;;;5051054;28;20048;-44
2022/08/22 07:38:07;;;;;;;16.30;10.85;;;;;;;;;;5053278;28;20021;-46
2022/08/22 07:40:43;;;;;;;15.77;11.82;;;;;;;;;;5053294;28;20021;-44
2022/08/22 07:43:21;;;;;;;18.05;11.18;;;;;;;;;;5053039;28;20029;-44
2022/08/22 07:45:57;;;;;;;18.33;12.05;;;;;;;;;;5053497;28;20095;-43
2022/08/22 07:48:32;;;;;;;15.10;10.80;;;;;;;;;;5053107;28;20036;-43
2022/08/22 07:51:07;;;;;;;19.25;13.32;;;;;;;;;;5035257;28;20021;-42
2022/08/22 07:53:44;;;;;;;16.45;11.63;;;;;;;;;;5053068;28;20167;-42
2022/08/22 07:56:20;;;;;;;17.77;11.90;;;;;;;;;;5052565;28;20021;-45
2022/08/22 07:58:52;;;;;;;15.02;10.52;;;;;;;;;;5052968;28;20542;-48
2022/08/22 08:01:22;;;;;;;12.55;10.07;;;;;;;;;;5053222;28;20051;-44
2022/08/22 08:03:58;;;;;;;;;;;;;;;;;;5035519;28;20021;-44
2022/08/22 08:06:25;;;;;;;18.88;9.98;;;;;;;;;;5052820;28;19944;-46
2022/08/22 08:08:52;;;;;;;14.27;9.55;;;;;;;;;;5052718;28;20033;-44
2022/08/22 08:11:21;;;;;;;15.45;8.98;;;;;;;;;;5052970;28;20070;-41
2022/08/22 08:13:56;;;;;;;17.27;11.13;;;;;;;;;;5052893;28;20031;-48
2022/08/22 08:16:25;;;;;;;14.45;8.02;;;;;;;;;;5052726;28;20017;-42
2022/08/22 08:18:55;;;;;;;14.07;8.98;;;;;;;;;;5052881;28;20621;-46
2022/08/22 08:21:28;;;;;;;17.00;7.70;;;;;;;;;;5034798;28;20560;-44
2022/08/22 08:23:55;;;;;;;17.42;8.15;;;;;;;;;;5053119;28;20163;-42
2022/08/22 08:26:26;;;;;;;13.50;6.82;;;;;;;;;;5052789;28;20064;-41
2022/08/22 08:28:56;;;;;;;12.90;7.50;;;;;;;;;;5052523;28;20032;-41
2022/08/22 08:31:34;;;;;;;11.00;8.20;;;;;;;;;;5052473;28;20020;-45
2022/08/22 08:34:19;;;;;;;12.90;6.53;;;;;;;;;;5052674;28;20037;-41
2022/08/22 08:36:57;;;;;;;11.10;6.93;;;;;;;;;;5052708;28;20028;-41
2022/08/22 08:39:34;;;;;;;8.70;6.45;;;;;;;;;;5052442;28;20065;-41
2022/08/22 08:42:13;;;;;;;7.93;5.80;;;;;;;;;;5052482;28;20381;-42
2022/08/22 08:45:04;;;;;;;10.95;6.53;;;;;;;;;;5052104;28;20049;-46
2022/08/22 08:47:35;;;;;;;8.15;4.93;;;;;;;;;;5013664;28;20037;-44
2022/08/22 08:50:42;;;;;;;8.07;5.95;;;;;;;;;;5052541;28;20028;-47
2022/08/22 08:53:40;;;;;;;10.32;6.82;;;;;;;;;;5039053;28;20037;-47
2022/08/22 08:56:29;;;;;;;4.82;4.03;;;;;;;;;;5052188;28;20029;-46
2022/08/22 08:59:27;;;;;;;9.40;5.70;;;;;;;;;;5052171;28;20070;-45
2022/08/22 09:02:10;;;;;;;10.52;7.10;;;;;;;;;;5013868;28;20049;-44
2022/08/22 09:05:14;;;;;;;14.35;6.68;;;;;;;;;;5052472;28;20135;-42
2022/08/22 09:07:55;;;;;;;9.52;5.85;;;;;;;;;;5055928;28;20473;-43
2022/08/22 09:10:29;;;;;;;9.63;5.93;;;;;;;;;;5056213;28;20029;-45
2022/08/22 09:13:40;;;;;;;6.07;4.25;;;;;;;;;;5056017;28;20059;-46
2022/08/22 09:16:42;;;;;;;5.65;3.55;;;;;;;;;;5051085;28;20048;-44
2022/08/22 09:19:10;;;;;;;9.35;4.88;;;;;;;;;;5056316;28;20468;-45
2022/08/22 09:21:48;;;;;;;7.78;5.43;;;;;;;;;;5055857;28;20121;-48
2022/08/22 09:24:37;;;;;;;11.85;7.10;;;;;;;;;;5056195;28;20029;-46
2022/08/22 09:27:13;;;;;;;13.43;6.60;;;;;;;;;;5055916;28;20040;-46
2022/08/22 09:29:54;;;;;;;11.70;6.70;;;;;;;;;;5056138;28;20247;-44
2022/08/22 09:32:38;;;;;;;10.70;7.15;;;;;;;;;;5055814;28;20031;-44
2022/08/22 09:35:29;;;;;;;7.32;5.80;;;;;;;;;;5055708;28;20064;-43
2022/08/22 09:38:00;;;;;;;7.65;6.18;;;;;;;;;;5055637;28;20100;-44
2022/08/22 09:40:41;;;;;;;7.97;6.25;;;;;;;;;;5037766;28;20064;-45
2022/08/22 09:43:14;;;;;;;10.25;7.25;;;;;;;;;;5055436;28;20035;-45
2022/08/22 09:45:47;;;;;;;10.00;5.70;;;;;;;;;;5055555;28;20048;-45
2022/08/22 09:48:31;;;;;;;7.82;6.07;;;;;;;;;;5055369;28;20021;-45
2022/08/22 09:51:27;;;;;;;7.35;5.90;;;;;;;;;;5055448;28;20029;-41
2022/08/22 09:54:43;;;;;;;10.02;6.95;;;;;;;;;;5055361;28;20048;-46
2022/08/22 09:57:18;;;;;;;7.47;5.00;;;;;;;;;;4954956;29;20126;-41
2022/08/22 10:00:12;;;;;;;7.50;5.63;;;;;;;;;;4954881;29;20034;-42
2022/08/22 10:02:57;;;;;;;6.50;4.63;;;;;;;;;;5027005;28;20047;-46
2022/08/22 10:05:30;;;;;;;6.30;3.88;;;;;;;;;;5055412;28;20021;-47
2022/08/22 10:07:55;;;;;;;5.88;4.90;;;;;;;;;;5054979;28;20078;-44
2022/08/22 10:10:58;;;;;;;8.27;5.55;;;;;;;;;;5055069;28;20021;-45
2022/08/22 10:13:41;;;;;;;3.80;2.95;;;;;;;;;;5055046;28;20397;-47
2022/08/22 10:16:07;;;;;;;7.68;5.20;;;;;;;;;;5054877;28;20515;-46
2022/08/22 10:19:06;;;;;;;3.63;2.78;;;;;;;;;;5054289;28;20033;-45
2022/08/22 10:21:47;;;;;;;7.05;4.50;;;;;;;;;;5038258;28;20032;-47
2022/08/22 10:24:45;;;;;;;6.55;5.15;;;;;;;;;;5036878;28;20176;-50
2022/08/22 10:27:20;;;;;;;8.55;4.97;;;;;;;;;;5054679;28;20029;-47
2022/08/22 10:30:13;;;;;;;7.57;5.13;;;;;;;;;;5054994;28;20041;-44
2022/08/22 10:32:39;;;;;;;4.95;4.07;;;;;;;;;;5054579;28;20033;-47
2022/08/22 10:35:19;;;;;;;3.53;2.85;;;;;;;;;;5054558;28;20052;-45
2022/08/22 10:38:15;;;;;;;4.63;4.15;;;;;;;;;;5054796;28;20032;-45
2022/08/22 10:40:45;;;;;;;3.88;3.40;;;;;;;;;;5045986;28;20095;-44
2022/08/22 10:43:18;;;;;;;3.40;3.10;;;;;;;;;;5054241;28;20079;-44
2022/08/22 10:45:49;;;;;;;5.28;4.00;;;;;;;;;;5054356;28;20499;-48
2022/08/22 10:48:37;;;;;;;3.03;2.63;;;;;;;;;;5036375;28;20051;-44
2022/08/22 10:51:13;;;;;;;5.50;3.95;;;;;;;;;;5054635;28;20024;-46
2022/08/22 10:54:05;;;;;;;5.32;3.75;;;;;;;;;;5036351;28;20037;-46
2022/08/22 10:56:37;;;;;;;3.88;3.53;;;;;;;;;;5053125;28;20496;-45
2022/08/22 10:59:16;;;;;;;3.88;3.58;;;;;;;;;;5054441;28;20037;-44
2022/08/22 11:01:57;;;;;;;4.35;3.85;;;;;;;;;;5054428;28;20039;-46
2022/08/22 11:04:40;;;;;;;3.83;3.20;;;;;;;;;;5054062;28;20033;-51
2022/08/22 11:07:18;;;;;;;4.53;2.92;;;;;;;;;;5054007;28;20500;-46
2022/08/22 11:09:53;;;;;;;4.15;3.65;;;;;;;;;;5054055;28;20036;-48
2022/08/22 11:12:30;;;;;;;4.10;3.22;;;;;;;;;;5053898;28;20017;-44
2022/08/22 11:15:15;;;;;;;5.38;3.17;;;;;;;;;;5053922;28;20029;-50
2022/08/22 11:17:58;;;;;;;3.40;2.28;;;;;;;;;;5053532;28;20087;-46
2022/08/22 11:20:33;;;;;;;5.70;3.75;;;;;;;;;;5053958;28;20021;-43
2022/08/22 11:23:11;;;;;;;3.13;2.65;;;;;;;;;;5053552;28;20063;-48
2022/08/22 11:25:51;;;;;;;4.18;3.30;;;;;;;;;;5053613;28;20120;-46
2022/08/22 11:28:20;;;;;;;2.28;2.13;;;;;;;;;;5053716;28;20385;-49
2022/08/22 11:31:03;;;;;;;4.40;3.35;;;;;;;;;;5052595;28;20033;-46
2022/08/22 11:33:41;;;;;;;2.67;2.22;;;;;;;;;;5053442;28;20037;-41
2022/08/22 11:36:16;;;;;;;4.90;2.42;;;;;;;;;;5053454;28;20028;-46
2022/08/22 11:39:00;;;;;;;4.60;3.53;;;;;;;;;;5053385;28;20064;-45
2022/08/22 11:41:43;;;;;;;4.60;3.15;;;;;;;;;;5053642;28;20381;-42
2022/08/22 11:44:27;;;;;;;3.33;3.03;;;;;;;;;;5053179;28;20052;-44
2022/08/22 11:46:56;;;;;;;3.50;3.20;;;;;;;;;;5053379;28;20024;-47
2022/08/22 11:49:31;;;;;;;4.93;3.67;;;;;;;;;;5053359;28;20025;-46
2022/08/22 11:52:02;;;;;;;4.28;3.58;;;;;;;;;;5053130;28;20048;-46
2022/08/22 11:54:49;;;;;;;3.67;3.30;;;;;;;;;;5035183;28;20476;-48
2022/08/22 11:57:32;;;;;;;5.43;4.20;;;;;;;;;;5053052;28;20100;-47
2022/08/22 12:00:00;;;;;;;5.80;3.70;;;;;;;;;;5052969;28;20076;-42
2022/08/22 12:02:46;;;;;;;5.13;3.47;;;;;;;;;;5053169;28;20028;-41
2022/08/22 12:05:22;;;;;;;4.20;3.45;;;;;;;;;;5053193;28;20025;-47
2022/08/22 12:08:22;;;;;;;5.03;3.45;;;;;;;;;;5053127;28;20025;-45
2022/08/22 12:11:04;;;;;;;3.65;3.35;;;;;;;;;;5012282;28;20116;-44
2022/08/22 12:13:45;;;;;;;4.28;3.88;;;;;;;;;;5052713;28;20116;-48
2022/08/22 12:16:56;;;;;;;5.18;4.20;;;;;;;;;;5052816;28;20075;-43
2022/08/22 12:19:35;;;;;;;4.72;3.35;;;;;;;;;;4971601;28;20415;-46
2022/08/22 12:22:33;;;;;;;4.10;3.35;;;;;;;;;;4955511;28;20023;-45
2022/08/22 12:25:18;;;;;;;3.35;3.05;;;;;;;;;;5033881;28;20041;-50
2022/08/22 12:28:11;;;;;;;3.35;2.65;;;;;;;;;;5052433;28;20040;-45
2022/08/22 12:30:58;;;;;;;3.38;3.08;;;;;;;;;;5052812;28;20024;-41
2022/08/22 12:34:08;;;;;;;3.75;3.00;;;;;;;;;;5052486;28;20024;-45
2022/08/22 12:37:12;;;;;;;6.97;3.30;;;;;;;;;;4952233;29;20044;-47
2022/08/22 12:39:59;;;;;;;3.55;3.17;;;;;;;;;;4952035;29;20442;-43
2022/08/22 12:42:28;;;;;;;3.95;3.00;;;;;;;;;;5038777;28;20052;-45
2022/08/22 12:45:17;;;;;;;2.72;2.38;;;;;;;;;;5034147;28;20481;-47
2022/08/22 12:48:04;;;;;;;2.70;2.50;;;;;;;;;;5052170;28;20132;-43
2022/08/22 12:50:47;;;;;;;3.63;2.80;;;;;;;;;;5052250;28;20078;-48
2022/08/22 12:53:45;;;;;;;5.03;2.38;;;;;;;;;;5052124;28;20025;-43
2022/08/22 12:56:52;;;;;;;2.53;2.03;;;;;;;;;;5045053;28;20041;-46
2022/08/22 12:59:34;;;;;;;1.60;1.50;;;;;;;;;;5005606;28;20033;-46
2022/08/22 13:02:15;;;;;;;1.50;1.40;;;;;;;;;;5052243;28;20021;-41
2022/08/22 13:05:12;;;;;;;2.67;1.73;;;;;;;;;;5052157;28;20033;-44
2022/08/22 13:07:41;;;;;;;2.47;2.28;;;;;;;;;;5044764;28;20067;-45
2022/08/22 13:10:46;;;;;;;2.75;2.25;;;;;;;;;;5052264;28;20029;-46
2022/08/22 13:13:37;;;;;;;2.60;2.40;;;;;;;;;;5052399;28;20472;-42
2022/08/22 13:16:11;;;;;;;2.88;2.58;;;;;;;;;;5052129;28;20033;-43
2022/08/22 13:18:47;;;;;;;3.70;2.70;;;;;;;;;;5052005;28;20484;-42
2022/08/22 13:21:15;;;;;;;2.83;2.63;;;;;;;;;;5052065;28;20118;-42
2022/08/22 13:23:45;;;;;;;3.13;2.80;;;;;;;;;;5051931;28;20024;-41
2022/08/22 13:26:17;;;;;;;2.80;2.50;;;;;;;;;;5052030;28;20112;-43
2022/08/22 13:28:46;;;;;;;3.15;2.85;;;;;;;;;;5052024;28;20076;-43
2022/08/22 13:31:23;;;;;;;4.00;3.10;;;;;;;;;;5052131;28;20025;-42
2022/08/22 13:33:50;;;;;;;3.97;3.30;;;;;;;;;;5052133;28;20643;-43
2022/08/22 13:36:18;;;;;;;3.20;2.90;;;;;;;;;;5051822;28;20082;-43
2022/08/22 13:38:50;;;;;;;4.43;3.40;;;;;;;;;;5051749;28;20029;-46
2022/08/22 13:41:30;;;;;;;3.78;2.90;;;;;;;;;;5052127;28;20128;-44
2022/08/22 13:44:12;;;;;;;4.60;3.40;;;;;;;;;;5051507;28;20049;-44
2022/08/22 13:46:39;;;;;;;3.67;3.30;;;;;;;;;;5051533;28;20032;-46
2022/08/22 13:49:08;;;;;;;3.53;3.13;;;;;;;;;;5051664;28;20044;-45
2022/08/22 13:52:02;;;;;;;5.40;2.80;;;;;;;;;;5051659;28;20453;-45
2022/08/22 13:55:08;;;;;;;3.45;2.80;;;;;;;;;;5054865;28;20481;-45
2022/08/22 13:57:45;;;;;;;4.00;3.60;;;;;;;;;;4954877;29;20163;-45
2022/08/22 14:00:48;;;;;;;3.92;3.47;;;;;;;;;;4954928;29;20415;-48
2022/08/22 14:03:20;;;;;;;5.05;3.83;;;;;;;;;;5035897;28;20468;-46
2022/08/22 14:05:52;;;;;;;4.47;3.70;;;;;;;;;;5055390;28;20033;-46
2022/08/22 14:08:40;;;;;;;4.07;3.65;;;;;;;;;;5055190;28;20072;-46
2022/08/22 14:11:16;;;;;;;5.30;3.00;;;;;;;;;;5055040;28;20547;-44
2022/08/22 14:13:54;;;;;;;3.85;3.47;;;;;;;;;;5054987;28;20056;-48
2022/08/22 14:16:27;;;;;;;5.07;3.60;;;;;;;;;;5054956;28;20021;-44
2022/08/22 14:18:58;;;;;;;6.07;3.50;;;;;;;;;;5054888;28;20060;-43
2022/08/22 14:21:46;;;;;;;4.18;3.47;;;;;;;;;;5054780;28;20079;-41
2022/08/22 14:24:20;;;;;;;3.42;3.10;;;;;;;;;;5054198;28;20048;-40
2022/08/22 14:26:57;;;;;;;3.55;3.20;;;;;;;;;;5054838;28;20078;-41
2022/08/22 14:29:25;;;;;;;3.63;3.33;;;;;;;;;;5054571;28;20082;-40
2022/08/22 14:31:56;;;;;;;6.10;3.25;;;;;;;;;;5054598;28;20040;-41
2022/08/22 14:34:23;;;;;;;6.05;3.85;;;;;;;;;;5054773;28;20021;-41
2022/08/22 14:37:02;;;;;;;3.83;3.53;;;;;;;;;;5054555;28;20025;-42
2022/08/22 14:39:34;;;;;;;4.70;3.60;;;;;;;;;;5054748;28;20025;-43
2022/08/22 14:42:22;;;;;;;6.40;3.70;;;;;;;;;;5054339;28;20151;-43
2022/08/22 14:45:07;;;;;;;4.68;3.67;;;;;;;;;;5054107;28;20037;-43
2022/08/22 14:47:49;;;;;;;3.78;3.30;;;;;;;;;;5054300;28;20029;-41
2022/08/22 14:50:37;;;;;;;3.67;3.30;;;;;;;;;;5054583;28;20113;-42
2022/08/22 14:53:10;;;;;;;2.72;2.50;;;;;;;;;;5054211;28;20473;-44
2022/08/22 14:55:36;;;;;;;3.70;3.20;;;;;;;;;;5054091;28;20036;-45
2022/08/22 14:58:12;;;;;;;3.80;3.20;;;;;;;;;;5054073;28;20388;-46
2022/08/22 15:00:43;;;;;;;3.10;2.70;;;;;;;;;;5054087;28;20055;-46
2022/08/22 15:03:25;;;;;;;5.13;3.05;;;;;;;;;;5054361;28;20079;-41
2022/08/22 15:05:59;;;;;;;3.45;3.10;;;;;;;;;;5054061;28;20052;-41
2022/08/22 15:08:30;;;;;;;9.05;3.95;;;;;;;;;;5053904;28;20025;-43
2022/08/22 15:11:05;;;;;;;3.95;3.55;;;;;;;;;;5053913;28;20039;-43
2022/08/22 15:13:30;;;;;;;6.20;3.80;;;;;;;;;;5054119;28;20078;-40
2022/08/22 15:15:57;;;;;;;4.25;3.35;;;;;;;;;;5053804;28;20540;-43
2022/08/22 15:18:28;;;;;;;4.60;3.15;;;;;;;;;;5053708;28;20060;-41
2022/08/22 15:21:07;;;;;;;3.75;3.22;;;;;;;;;;5054029;28;20399;-42
2022/08/22 15:23:35;;;;;;;4.07;3.28;;;;;;;;;;5053500;28;20552;-41
2022/08/22 15:26:07;;;;;;;4.68;3.30;;;;;;;;;;5053703;28;20060;-42
2022/08/22 15:28:36;;;;;;;4.78;3.53;;;;;;;;;;5053509;28;20040;-42
2022/08/22 15:31:15;;;;;;;4.32;3.35;;;;;;;;;;5053590;28;20025;-44
2022/08/22 15:33:46;;;;;;;3.20;2.90;;;;;;;;;;5053450;28;20109;-43
2022/08/22 15:36:22;;;;;;;;;;;;;;;;;;5053924;28;20040;-48
2022/08/22 15:39:15;;;;;;;6.35;3.50;;;;;;;;;;5053361;28;19967;-47
2022/08/22 15:41:45;;;;;;;3.67;2.92;;;;;;;;;;5053172;28;20021;-40
2022/08/22 15:44:34;;;;;;;3.28;2.97;;;;;;;;;;5053039;28;20040;-42
2022/08/22 15:47:31;;;;;;;3.10;2.88;;;;;;;;;;5053478;28;20052;-43
2022/08/22 15:50:01;;;;;;;5.28;3.08;;;;;;;;;;5053147;28;20473;-40
2022/08/22 15:52:32;;;;;;;3.47;2.95;;;;;;;;;;5053145;28;20025;-42
2022/08/22 15:55:06;;;;;;;3.60;3.30;;;;;;;;;;5053001;28;20086;-42
2022/08/22 15:57:40;;;;;;;4.32;3.92;;;;;;;;;;5052908;28;20029;-46
2022/08/22 16:00:24;;;;;;;3.92;3.55;;;;;;;;;;5053041;28;20040;-44
2022/08/22 16:03:10;;;;;;;5.00;4.10;;;;;;;;;;5053002;28;20059;-43